Time;durP1;ratioP1;P1;durP2;ratioP2;P2;SDS_P1;SDS_P2;PMS_P1;PMS_P2;Temp;Humidity;BMP_temperature;BMP_pressure;BME280_temperature;BME280_humidity;BME280_pressure;Samples;Min_cycle;Max_cycle;Signal;HPM_P1;HPM_P2
2023/03/13 00:00:44;;;;;;;;;;;;;;;5.12;82.60;100214.06;4175524;28;20019;-64
2023/03/13 00:02:46;;;;;;;;;;;;;;;5.12;81.84;100203.38;4177355;28;20364;-64
2023/03/13 00:04:49;;;;;;;;;;;;;;;5.14;82.22;100200.53;4178343;28;20027;-64
2023/03/13 00:06:51;;;;;;;;;;;;;;;5.15;82.06;100215.59;4177531;28;20004;-65
2023/03/13 00:08:54;;;;;;;;;;;;;;;5.17;82.29;100209.13;4178102;28;20403;-65
2023/03/13 00:10:56;;;;;;;;;;;;;;;5.19;82.89;100204.44;4178006;28;20020;-65
2023/03/13 00:12:58;;;;;;;;;;;;;;;5.21;82.48;100206.97;4176113;28;20011;-64
2023/03/13 00:15:00;;;;;;;;;;;;;;;5.22;83.02;100212.16;4177900;28;20103;-65
2023/03/13 00:17:02;;;;;;;;;;;;;;;5.22;83.45;100206.81;4177275;28;20047;-64
2023/03/13 00:19:05;;;;;;;;;;;;;;;5.26;83.94;100206.50;4178113;28;20032;-65
2023/03/13 00:21:08;;;;;;;;;;;;;;;5.23;83.76;100197.78;4177840;28;20007;-64
2023/03/13 00:23:10;;;;;;;;;;;;;;;5.22;82.63;100198.78;4176937;28;20019;-65
2023/03/13 00:25:12;;;;;;;;;;;;;;;5.23;81.63;100196.94;4177654;28;20305;-64
2023/03/13 00:27:14;;;;;;;;;;;;;;;5.25;82.25;100197.63;4177772;28;20004;-64
2023/03/13 00:29:16;;;;;;;;;;;;;;;5.27;82.80;100184.91;4177170;28;20015;-65
2023/03/13 00:31:18;;;;;;;;;;;;;;;5.26;82.85;100188.59;4177171;28;20008;-63
2023/03/13 00:33:22;;;;;;;;;;;;;;;5.30;83.72;100187.28;4175869;28;21228;-65
2023/03/13 00:35:25;;;;;;;;;;;;;;;5.31;83.86;100186.28;4178169;28;20011;-65
2023/03/13 00:37:28;;;;;;;;;;;;;;;5.29;82.27;100187.44;4176586;28;19928;-64
2023/03/13 00:39:30;;;;;;;;;;;;;;;5.22;82.45;100176.53;4176921;28;20024;-64
2023/03/13 00:41:32;;;;;;;;;;;;;;;5.32;82.67;100176.41;4177421;28;20024;-63
2023/03/13 00:43:35;;;;;;;;;;;;;;;5.32;82.33;100176.41;4177850;28;20433;-65
2023/03/13 00:45:37;;;;;;;;;;;;;;;5.35;83.04;100179.63;4177555;28;20011;-65
2023/03/13 00:47:40;;;;;;;;;;;;;;;5.33;82.61;100170.91;4176226;28;20023;-64
2023/03/13 00:49:44;;;;;;;;;;;;;;;5.33;82.37;100168.22;4177163;28;20027;-64
2023/03/13 00:51:46;;;;;;;;;;;;;;;5.35;82.83;100171.59;4176737;28;20028;-66
2023/03/13 00:53:49;;;;;;;;;;;;;;;5.37;82.52;100163.41;4177799;28;20028;-64
2023/03/13 00:55:53;;;;;;;;;;;;;;;5.38;84.13;100157.06;4178589;28;20016;-65
2023/03/13 00:57:55;;;;;;;;;;;;;;;5.40;84.11;100155.88;4180689;28;20522;-66
2023/03/13 00:59:56;;;;;;;;;;;;;;;5.40;83.84;100155.03;4180872;28;20019;-65
2023/03/13 01:01:58;;;;;;;;;;;;;;;5.40;84.00;100160.41;4179379;28;20028;-65
2023/03/13 01:04:01;;;;;;;;;;;;;;;5.46;84.07;100164.28;4179849;28;20024;-65
2023/03/13 01:06:06;;;;;;;;;;;;;;;5.43;84.22;100152.06;4195589;28;20458;-65
2023/03/13 01:08:08;;;;;;;;;;;;;;;5.45;84.60;100149.22;4178884;28;20019;-65
2023/03/13 01:10:13;;;;;;;;;;;;;;;5.46;84.35;100142.88;4180440;28;20032;-65
2023/03/13 01:12:15;;;;;;;;;;;;;;;5.45;83.57;100151.91;4170052;28;20026;-64
2023/03/13 01:14:19;;;;;;;;;;;;;;;5.44;84.81;100147.53;4180736;28;19929;-64
2023/03/13 01:16:21;;;;;;;;;;;;;;;5.44;84.18;100144.84;4180052;28;19951;-64
2023/03/13 01:18:23;;;;;;;;;;;;;;;5.44;84.06;100140.34;4179011;28;20019;-63
2023/03/13 01:20:25;;;;;;;;;;;;;;;5.45;84.69;100142.00;4195416;28;20024;-64
2023/03/13 01:22:27;;;;;;;;;;;;;;;5.46;84.64;100145.56;4179511;28;20021;-62
2023/03/13 01:24:29;;;;;;;;;;;;;;;5.48;84.92;100146.22;4180044;28;20004;-62
2023/03/13 01:26:32;;;;;;;;;;;;;;;5.48;84.91;100146.22;4178939;28;20019;-63
2023/03/13 01:28:35;;;;;;;;;;;;;;;5.47;83.66;100141.84;4180296;28;20083;-64
2023/03/13 01:30:37;;;;;;;;;;;;;;;5.43;82.75;100146.69;4177268;28;19932;-64
2023/03/13 01:32:39;;;;;;;;;;;;;;;5.44;82.23;100142.16;4171188;28;20039;-63
2023/03/13 01:34:41;;;;;;;;;;;;;;;5.44;83.12;100148.38;4180001;28;20020;-63
2023/03/13 01:36:44;;;;;;;;;;;;;;;5.46;83.68;100146.38;4179415;28;20012;-62
2023/03/13 01:38:47;;;;;;;;;;;;;;;5.46;84.76;100141.03;4178261;28;20024;-64
2023/03/13 01:40:49;;;;;;;;;;;;;;;5.47;84.61;100144.53;4178451;28;20011;-63
2023/03/13 01:42:54;;;;;;;;;;;;;;;5.46;84.39;100135.66;4178298;28;20015;-64
2023/03/13 01:44:56;;;;;;;;;;;;;;;5.46;83.82;100140.19;4178226;28;20026;-64
2023/03/13 01:47:00;;;;;;;;;;;;;;;5.46;83.54;100129.47;4171541;28;20846;-65
2023/03/13 01:49:11;;;;;;;;;;;;;;;5.45;83.29;100125.94;4178708;28;20362;-64
2023/03/13 01:51:26;;;;;;;;;;;;;;;5.45;83.38;100130.47;4178866;28;19925;-64
2023/03/13 01:53:29;;;;;;;;;;;;;;;5.47;83.70;100129.31;4194388;28;20039;-63
2023/03/13 01:55:31;;;;;;;;;;;;;;;5.46;83.39;100124.94;4171841;28;20023;-64
2023/03/13 01:57:34;;;;;;;;;;;;;;;5.45;82.90;100114.41;4170338;28;20024;-63
2023/03/13 01:59:38;;;;;;;;;;;;;;;5.45;82.87;100114.41;4178719;28;20015;-64
2023/03/13 02:01:41;;;;;;;;;;;;;;;5.46;82.93;100110.72;4178440;28;20446;-62
2023/03/13 02:03:42;;;;;;;;;;;;;;;5.45;82.80;100106.38;4179540;28;20024;-64
2023/03/13 02:05:44;;;;;;;;;;;;;;;5.45;82.69;100101.00;4179206;28;20023;-65
2023/03/13 02:07:50;;;;;;;;;;;;;;;5.45;83.21;100095.66;4176398;28;20028;-64
2023/03/13 02:09:52;;;;;;;;;;;;;;;5.42;82.00;100094.13;4179083;28;20035;-63
2023/03/13 02:11:55;;;;;;;;;;;;;;;5.42;81.41;100099.47;4193640;28;20450;-62
2023/03/13 02:13:57;;;;;;;;;;;;;;;5.41;81.51;100087.09;4179663;28;20454;-64
2023/03/13 02:16:00;;;;;;;;;;;;;;;5.44;81.94;100091.28;4178379;28;20012;-64
2023/03/13 02:18:02;;;;;;;;;;;;;;;5.44;82.23;100084.09;4179009;28;20008;-63
2023/03/13 02:20:05;;;;;;;;;;;;;;;5.46;82.41;100081.28;4179631;28;20390;-63
2023/03/13 02:22:09;;;;;;;;;;;;;;;5.49;83.75;100081.78;4178647;28;20015;-63
2023/03/13 02:24:14;;;;;;;;;;;;;;;5.49;83.33;100080.94;4179247;28;20027;-63
2023/03/13 02:26:17;;;;;;;;;;;;;;;5.49;82.98;100083.63;4170428;28;20041;-63
2023/03/13 02:28:19;;;;;;;;;;;;;;;5.51;82.77;100077.09;4176800;28;21606;-65
2023/03/13 02:30:21;;;;;;;;;;;;;;;5.50;81.82;100074.56;4178588;28;20059;-64
2023/03/13 02:32:23;;;;;;;;;;;;;;;5.48;81.34;100073.91;4177726;28;19951;-64
2023/03/13 02:34:29;;;;;;;;;;;;;;;5.51;81.63;100066.38;4177905;28;20015;-63
2023/03/13 02:36:32;;;;;;;;;;;;;;;5.50;81.54;100071.91;4178154;28;20016;-64
2023/03/13 02:38:35;;;;;;;;;;;;;;;5.54;82.44;100065.22;4178403;28;20024;-64
2023/03/13 02:40:38;;;;;;;;;;;;;;;5.55;82.33;100064.25;4194387;28;20023;-65
2023/03/13 02:42:42;;;;;;;;;;;;;;;5.61;83.56;100068.91;4177593;28;20032;-63
2023/03/13 02:44:45;;;;;;;;;;;;;;;5.57;82.35;100067.59;4177655;28;20084;-64
2023/03/13 02:46:49;;;;;;;;;;;;;;;5.58;82.90;100064.75;4177410;28;20015;-65
2023/03/13 02:48:52;;;;;;;;;;;;;;;5.57;82.15;100055.03;4177656;28;20020;-64
2023/03/13 02:50:54;;;;;;;;;;;;;;;5.60;82.15;100048.50;4193626;28;20024;-63
2023/03/13 02:52:58;;;;;;;;;;;;;;;5.60;82.11;100052.03;4192785;28;20379;-63
2023/03/13 02:55:01;;;;;;;;;;;;;;;5.63;82.56;100047.34;4177977;28;20019;-63
2023/03/13 02:57:04;;;;;;;;;;;;;;;5.64;82.29;100052.53;4176879;28;20868;-65
2023/03/13 02:59:07;;;;;;;;;;;;;;;5.67;82.59;100037.97;4169819;28;20012;-65
2023/03/13 03:01:13;;;;;;;;;;;;;;;5.70;82.46;100034.97;4194782;28;20438;-63
2023/03/13 03:03:17;;;;;;;;;;;;;;;5.68;82.04;100029.78;4193044;28;20024;-63
2023/03/13 03:05:20;;;;;;;;;;;;;;;5.70;83.46;100035.81;4178716;28;20019;-64
2023/03/13 03:07:23;;;;;;;;;;;;;;;5.71;83.67;100026.78;4177804;28;20631;-64
2023/03/13 03:09:25;;;;;;;;;;;;;;;5.73;83.43;100021.25;4153839;28;20023;-64
2023/03/13 03:11:31;;;;;;;;;;;;;;;5.76;83.42;100029.78;4177419;28;20023;-61
2023/03/13 03:13:39;;;;;;;;;;;;;;;5.76;83.07;100019.09;4193433;28;19932;-64
2023/03/13 03:15:42;;;;;;;;;;;;;;;5.75;82.26;100014.75;4170506;28;20032;-65
2023/03/13 03:17:44;;;;;;;;;;;;;;;5.75;82.24;100014.75;4165692;28;20631;-62
2023/03/13 03:19:46;;;;;;;;;;;;;;;5.80;83.11;100003.53;4168863;28;20261;-64
2023/03/13 03:21:48;;;;;;;;;;;;;;;5.85;83.78;100005.72;4176659;28;20481;-63
2023/03/13 03:23:53;;;;;;;;;;;;;;;5.85;83.16;100011.91;4178436;28;20028;-64
2023/03/13 03:25:55;;;;;;;;;;;;;;;5.87;83.57;99996.50;4178927;28;20450;-64
2023/03/13 03:27:57;;;;;;;;;;;;;;;5.89;83.46;99996.34;4178244;28;20649;-63
2023/03/13 03:29:59;;;;;;;;;;;;;;;5.89;82.72;100001.69;4177821;28;20027;-64
2023/03/13 03:32:03;;;;;;;;;;;;;;;5.88;83.23;100000.88;4193890;28;20007;-62
2023/03/13 03:34:05;;;;;;;;;;;;;;;5.91;83.35;99997.03;4193816;28;19935;-63
2023/03/13 03:36:08;;;;;;;;;;;;;;;5.94;83.47;99994.00;4169618;28;20080;-64
2023/03/13 03:38:10;;;;;;;;;;;;;;;5.97;83.49;99990.19;4193148;28;20018;-64
2023/03/13 03:40:12;;;;;;;;;;;;;;;5.99;83.32;99982.81;4178342;28;20015;-64
2023/03/13 03:42:14;;;;;;;;;;;;;;;5.98;82.86;99986.50;4176929;28;20013;-64
2023/03/13 03:44:16;;;;;;;;;;;;;;;6.00;82.96;99984.50;4176012;28;20032;-64
2023/03/13 03:46:28;;;;;;;;;;;;;;;6.00;83.15;99987.16;4177081;28;20043;-64
2023/03/13 03:48:32;;;;;;;;;;;;;;;6.01;83.01;99972.78;4177712;28;20035;-64
2023/03/13 03:50:35;;;;;;;;;;;;;;;5.99;82.74;99975.63;4176831;28;20398;-63
2023/03/13 03:52:37;;;;;;;;;;;;;;;6.04;83.24;99970.59;4192608;28;20023;-65
2023/03/13 03:54:39;;;;;;;;;;;;;;;6.07;83.81;99970.25;4176657;28;19925;-64
2023/03/13 03:56:41;;;;;;;;;;;;;;;6.07;83.38;99951.50;4193560;28;20023;-64
2023/03/13 03:58:43;;;;;;;;;;;;;;;6.07;83.26;99956.03;4177921;28;20008;-62
2023/03/13 04:01:01;;;;;;;;;;;;;;;6.10;83.64;99961.06;4193601;28;20477;-62
2023/03/13 04:03:03;;;;;;;;;;;;;;;6.09;83.16;99946.78;4191764;28;20023;-64
2023/03/13 04:05:07;;;;;;;;;;;;;;;6.09;83.17;99946.78;4178502;28;20461;-63
2023/03/13 04:07:10;;;;;;;;;;;;;;;6.09;82.66;99946.78;4167381;28;20003;-63
2023/03/13 04:09:14;;;;;;;;;;;;;;;6.10;82.93;99928.88;4194008;28;20031;-64
2023/03/13 04:11:17;;;;;;;;;;;;;;;6.12;82.55;99933.06;4193980;28;20011;-62
2023/03/13 04:13:24;;;;;;;;;;;;;;;6.13;82.48;99925.88;4168097;28;20341;-63
2023/03/13 04:15:26;;;;;;;;;;;;;;;6.15;82.56;99920.34;4168485;28;20409;-64
2023/03/13 04:17:28;;;;;;;;;;;;;;;6.16;82.81;99935.41;4175694;28;20362;-62
2023/03/13 04:19:30;;;;;;;;;;;;;;;6.15;81.96;99931.06;4176643;28;20015;-64
2023/03/13 04:21:34;;;;;;;;;;;;;;;6.17;81.99;99918.31;4177245;28;20020;-64
2023/03/13 04:23:44;;;;;;;;;;;;;;;6.16;82.08;99922.00;4170592;28;20031;-62
2023/03/13 04:25:48;;;;;;;;;;;;;;;6.20;83.21;99915.28;4176521;28;20012;-63
2023/03/13 04:27:50;;;;;;;;;;;;;;;6.22;82.99;99908.78;4176252;28;20028;-64
2023/03/13 04:29:54;;;;;;;;;;;;;;;6.24;82.60;99901.38;4170613;28;20024;-65
2023/03/13 04:31:59;;;;;;;;;;;;;;;6.22;82.61;99907.91;4179293;28;20019;-63
2023/03/13 04:34:18;;;;;;;;;;;;;;;6.22;82.74;99900.72;4179719;28;20027;-64
2023/03/13 04:36:42;;;;;;;;;;;;;;;6.22;82.53;99891.81;4171964;28;19929;-64
2023/03/13 04:39:17;;;;;;;;;;;;;;;6.20;81.63;99893.84;4173017;28;20011;-64
2023/03/13 04:41:58;;;;;;;;;;;;;;;6.22;81.84;99891.81;4169890;28;20027;-64
2023/03/13 04:44:26;;;;;;;;;;;;;;;6.19;81.25;99878.75;4168004;28;20473;-63
2023/03/13 04:46:39;;;;;;;;;;;;;;;6.22;81.60;99886.47;4169286;28;20020;-64
2023/03/13 04:49:19;;;;;;;;;;;;;;;6.29;83.08;99874.88;4196932;28;20667;-63
2023/03/13 04:51:42;;;;;;;;;;;;;;;6.30;83.17;99881.94;4177877;28;20012;-65
2023/03/13 04:54:11;;;;;;;;;;;;;;;6.30;82.97;99868.53;4181435;28;20026;-61
2023/03/13 04:56:33;;;;;;;;;;;;;;;6.32;82.94;99868.34;4179622;28;20361;-65
2023/03/13 04:58:55;;;;;;;;;;;;;;;6.32;83.12;99863.81;4179286;28;20388;-65
2023/03/13 05:01:29;;;;;;;;;;;;;;;6.32;82.78;99863.00;4177878;28;20031;-63
2023/03/13 05:04:00;;;;;;;;;;;;;;;6.34;82.99;99862.81;4177901;28;19925;-62
2023/03/13 05:06:12;;;;;;;;;;;;;;;6.31;82.13;99845.22;4178946;28;19971;-64
2023/03/13 05:08:39;;;;;;;;;;;;;;;6.32;82.57;99847.72;4170822;28;20031;-64
2023/03/13 05:11:07;;;;;;;;;;;;;;;6.34;82.87;99836.84;4176710;28;20418;-64
2023/03/13 05:13:29;;;;;;;;;;;;;;;6.39;83.54;99833.63;4176572;28;20040;-65
2023/03/13 05:15:37;;;;;;;;;;;;;;;6.37;83.26;99823.06;4178955;28;20461;-64
2023/03/13 05:17:56;;;;;;;;;;;;;;;6.35;82.73;99818.88;4176985;28;19932;-65
2023/03/13 05:20:17;;;;;;;;;;;;;;;6.35;82.70;99803.66;4172643;28;20027;-64
2023/03/13 05:22:27;;;;;;;;;;;;;;;6.38;83.99;99806.00;4154926;28;20085;-65
2023/03/13 05:24:51;;;;;;;;;;;;;;;6.38;83.31;99807.81;4177516;28;20024;-63
2023/03/13 05:27:06;;;;;;;;;;;;;;;6.38;83.11;99805.13;4171898;28;20020;-65
2023/03/13 05:29:34;;;;;;;;;;;;;;;6.39;82.89;99796.91;4178375;28;20027;-64
2023/03/13 05:31:48;;;;;;;;;;;;;;;6.39;82.89;99801.44;4177040;28;20015;-64
2023/03/13 05:34:09;;;;;;;;;;;;;;;6.40;83.31;99797.78;4178131;28;20027;-64
2023/03/13 05:36:37;;;;;;;;;;;;;;;6.42;84.22;99793.06;4178803;28;20673;-65
2023/03/13 05:38:57;;;;;;;;;;;;;;;6.41;84.25;99784.19;4194991;28;20637;-65
2023/03/13 05:41:27;;;;;;;;;;;;;;;6.40;83.72;99776.31;4177240;28;20442;-64
2023/03/13 05:43:29;;;;;;;;;;;;;;;6.41;84.38;99776.13;4177613;28;20037;-62
2023/03/13 05:45:40;;;;;;;;;;;;;;;6.41;83.99;99767.22;4179567;28;20016;-65
2023/03/13 05:47:48;;;;;;;;;;;;;;;6.41;83.96;99773.47;4174910;28;20016;-64
2023/03/13 05:50:11;;;;;;;;;;;;;;;6.46;84.85;99764.88;4184246;28;20015;-64
2023/03/13 05:52:48;;;;;;;;;;;;;;;6.45;84.92;99763.22;4183453;28;20019;-64
2023/03/13 05:55:09;;;;;;;;;;;;;;;6.43;84.59;99755.34;4176753;28;20451;-65
2023/03/13 05:57:34;;;;;;;;;;;;;;;6.42;84.46;99750.16;4192428;28;20056;-64
2023/03/13 05:59:41;;;;;;;;;;;;;;;6.41;84.48;99740.41;4192534;28;19974;-64
2023/03/13 06:01:56;;;;;;;;;;;;;;;6.41;84.97;99743.09;4190387;28;20011;-65
2023/03/13 06:04:13;;;;;;;;;;;;;;;6.42;84.78;99732.19;4192834;28;20327;-63
2023/03/13 06:06:16;;;;;;;;;;;;;;;6.40;83.95;99731.53;4171587;28;20011;-63
2023/03/13 06:08:21;;;;;;;;;;;;;;;6.41;84.03;99729.69;4175171;28;20339;-63
2023/03/13 06:10:24;;;;;;;;;;;;;;;6.40;84.10;99730.72;4174755;28;20032;-62
2023/03/13 06:12:26;;;;;;;;;;;;;;;6.39;83.70;99739.75;4171833;28;20015;-65
2023/03/13 06:14:30;;;;;;;;;;;;;;;6.42;84.28;99729.50;4178274;28;20443;-63
2023/03/13 06:16:47;;;;;;;;;;;;;;;6.40;84.26;99725.34;4169627;28;20024;-63
2023/03/13 06:18:55;;;;;;;;;;;;;;;6.41;84.22;99727.84;4177108;28;20015;-63
2023/03/13 06:20:58;;;;;;;;;;;;;;;6.42;84.80;99717.97;4178228;28;20016;-61
2023/03/13 06:23:00;;;;;;;;;;;;;;;6.43;84.99;99707.06;4176935;28;20043;-62
2023/03/13 06:25:02;;;;;;;;;;;;;;;6.41;84.82;99701.03;4177722;28;20012;-63
2023/03/13 06:27:05;;;;;;;;;;;;;;;6.39;84.54;99703.03;4176029;28;20031;-61
2023/03/13 06:29:07;;;;;;;;;;;;;;;6.40;84.97;99688.63;4177194;28;20027;-62
2023/03/13 06:31:10;;;;;;;;;;;;;;;6.40;84.94;99701.22;4177691;28;20019;-64
2023/03/13 06:33:12;;;;;;;;;;;;;;;6.39;84.73;99700.34;4176762;28;20027;-63
2023/03/13 06:35:14;;;;;;;;;;;;;;;6.42;85.11;99686.59;4177111;28;20023;-64
2023/03/13 06:37:16;;;;;;;;;;;;;;;6.41;84.75;99676.03;4176681;28;20035;-62
2023/03/13 06:39:18;;;;;;;;;;;;;;;6.39;84.61;99675.41;4176561;28;20028;-64
2023/03/13 06:41:20;;;;;;;;;;;;;;;6.42;85.03;99675.03;4167621;28;19936;-63
2023/03/13 06:43:22;;;;;;;;;;;;;;;6.41;84.69;99663.50;4176600;28;20658;-61
2023/03/13 06:45:24;;;;;;;;;;;;;;;6.44;85.38;99660.44;4176032;28;20015;-62
2023/03/13 06:47:28;;;;;;;;;;;;;;;6.44;85.22;99655.09;4176096;28;20035;-62
2023/03/13 06:49:30;;;;;;;;;;;;;;;6.43;84.86;99639.16;4176590;28;20453;-59
2023/03/13 06:51:32;;;;;;;;;;;;;;;6.42;85.06;99638.31;4176014;28;20462;-62
2023/03/13 06:53:34;;;;;;;;;;;;;;;6.40;85.07;99643.03;4177007;28;20015;-61
2023/03/13 06:55:36;;;;;;;;;;;;;;;6.44;84.88;99628.25;4177650;28;20019;-63
2023/03/13 06:57:38;;;;;;;;;;;;;;;6.43;84.65;99623.09;4178076;28;20011;-62
2023/03/13 06:59:40;;;;;;;;;;;;;;;6.44;84.59;99622.91;4178554;28;20355;-63
2023/03/13 07:01:42;;;;;;;;;;;;;;;6.44;84.99;99617.53;4178015;28;20024;-62
2023/03/13 07:03:46;;;;;;;;;;;;;;;6.45;85.45;99608.47;4176929;28;20027;-63
2023/03/13 07:05:48;;;;;;;;;;;;;;;6.46;85.67;99614.69;4176141;28;20007;-63
2023/03/13 07:07:50;;;;;;;;;;;;;;;6.49;85.24;99611.66;4176633;28;20019;-63
2023/03/13 07:09:52;;;;;;;;;;;;;;;6.49;86.15;99615.16;4177366;28;20019;-62
2023/03/13 07:11:56;;;;;;;;;;;;;;;6.53;86.31;99623.66;4176585;28;20024;-63
2023/03/13 07:14:00;;;;;;;;;;;;;;;6.53;86.08;99622.84;4178147;28;20036;-63
2023/03/13 07:16:03;;;;;;;;;;;;;;;6.55;87.14;99597.50;4177961;28;20023;-63
2023/03/13 07:18:05;;;;;;;;;;;;;;;6.56;87.39;99599.16;4177559;28;20028;-61
2023/03/13 07:20:09;;;;;;;;;;;;;;;6.58;87.70;99604.34;4177980;28;20454;-62
2023/03/13 07:22:13;;;;;;;;;;;;;;;6.58;87.53;99599.00;4177187;28;20221;-63
2023/03/13 07:24:15;;;;;;;;;;;;;;;6.58;86.92;99599.84;4178091;28;20459;-63
2023/03/13 07:26:17;;;;;;;;;;;;;;;6.58;86.79;99593.63;4178564;28;20016;-63
2023/03/13 07:28:19;;;;;;;;;;;;;;;6.59;86.53;99600.66;4176932;28;20381;-62
2023/03/13 07:30:21;;;;;;;;;;;;;;;6.62;87.29;99587.72;4178358;28;20019;-64
2023/03/13 07:32:23;;;;;;;;;;;;;;;6.64;87.39;99584.84;4177603;28;20016;-64
2023/03/13 07:34:25;;;;;;;;;;;;;;;6.65;87.39;99591.91;4177350;28;20814;-61
2023/03/13 07:36:29;;;;;;;;;;;;;;;6.63;87.01;99586.72;4177158;28;20028;-63
2023/03/13 07:38:31;;;;;;;;;;;;;;;6.63;86.57;99580.50;4178101;28;20043;-63
2023/03/13 07:40:33;;;;;;;;;;;;;;;6.65;86.83;99586.53;4178241;28;20007;-63
2023/03/13 07:42:35;;;;;;;;;;;;;;;6.66;87.18;99585.50;4176297;28;19939;-63
2023/03/13 07:44:37;;;;;;;;;;;;;;;6.66;86.74;99577.44;4178008;28;20024;-63
2023/03/13 07:46:39;;;;;;;;;;;;;;;6.66;86.57;99575.63;4177182;28;20032;-64
2023/03/13 07:48:42;;;;;;;;;;;;;;;6.67;86.92;99571.91;4177051;28;20394;-64
2023/03/13 07:50:44;;;;;;;;;;;;;;;6.68;86.77;99554.81;4177402;28;20742;-64
2023/03/13 07:52:47;;;;;;;;;;;;;;;6.69;86.37;99561.00;4177355;28;20004;-64
2023/03/13 07:54:49;;;;;;;;;;;;;;;6.73;86.55;99572.22;4177867;28;20036;-63
2023/03/13 07:56:51;;;;;;;;;;;;;;;6.75;86.87;99552.22;4192690;28;20015;-64
2023/03/13 07:58:53;;;;;;;;;;;;;;;6.76;87.10;99561.13;4177529;28;20030;-63
2023/03/13 08:00:55;;;;;;;;;;;;;;;6.78;87.41;99543.81;4178143;28;20421;-64
2023/03/13 08:02:57;;;;;;;;;;;;;;;6.78;87.80;99562.59;4177197;28;20458;-64
2023/03/13 08:04:59;;;;;;;;;;;;;;;6.84;87.87;99547.63;4179436;28;20035;-64
2023/03/13 08:07:01;;;;;;;;;;;;;;;6.83;87.77;99538.75;4180775;28;20012;-64
2023/03/13 08:09:05;;;;;;;;;;;;;;;6.88;88.37;99550.78;4180182;28;20043;-64
2023/03/13 08:11:08;;;;;;;;;;;;;;;6.90;88.61;99535.34;4181282;28;20446;-64
2023/03/13 08:13:10;;;;;;;;;;;;;;;6.90;88.99;99538.03;4179096;28;20007;-64
2023/03/13 08:15:12;;;;;;;;;;;;;;;6.93;88.84;99545.69;4181184;28;20020;-64
2023/03/13 08:17:14;;;;;;;;;;;;;;;6.97;90.13;99522.84;4180366;28;20358;-62
2023/03/13 08:19:16;;;;;;;;;;;;;;;6.99;90.31;99531.53;4181019;28;20019;-64
2023/03/13 08:21:19;;;;;;;;;;;;;;;7.00;90.58;99525.16;4180730;28;20015;-64
2023/03/13 08:23:21;;;;;;;;;;;;;;;7.05;91.72;99528.13;4194751;28;20486;-61
2023/03/13 08:25:25;;;;;;;;;;;;;;;7.07;91.68;99520.72;4181164;28;20011;-64
2023/03/13 08:27:29;;;;;;;;;;;;;;;7.11;91.57;99519.31;4180536;28;20023;-63
2023/03/13 08:29:31;;;;;;;;;;;;;;;7.11;92.03;99522.00;4180899;28;20020;-63
2023/03/13 08:31:33;;;;;;;;;;;;;;;7.13;92.51;99522.69;4180597;28;20015;-62
2023/03/13 08:33:36;;;;;;;;;;;;;;;7.13;91.95;99513.78;4180867;28;20027;-64
2023/03/13 08:35:37;;;;;;;;;;;;;;;7.17;92.60;99533.88;4181169;28;20090;-64
2023/03/13 08:37:39;;;;;;;;;;;;;;;7.22;93.02;99513.53;4180122;28;20457;-65
2023/03/13 08:39:44;;;;;;;;;;;;;;;7.22;92.83;99507.28;4180928;28;20023;-64
2023/03/13 08:41:47;;;;;;;;;;;;;;;7.22;93.54;99504.59;4179092;28;20016;-64
2023/03/13 08:43:51;;;;;;;;;;;;;;;7.27;93.86;99517.47;4180705;28;19976;-64
2023/03/13 08:45:54;;;;;;;;;;;;;;;7.27;93.63;99506.75;4180484;28;20363;-63
2023/03/13 08:47:56;;;;;;;;;;;;;;;7.30;94.10;99492.94;4179679;28;20003;-65
2023/03/13 08:49:58;;;;;;;;;;;;;;;7.29;93.60;99492.13;4180436;28;20020;-64
2023/03/13 08:52:00;;;;;;;;;;;;;;;7.30;93.62;99487.56;4179962;28;20023;-64
2023/03/13 08:54:02;;;;;;;;;;;;;;;7.34;94.16;99491.56;4172219;28;20055;-64
2023/03/13 08:56:05;;;;;;;;;;;;;;;7.38;94.69;99499.06;4180790;28;20008;-64
2023/03/13 08:58:08;;;;;;;;;;;;;;;7.39;94.30;99499.88;4179703;28;20027;-64
2023/03/13 09:00:12;;;;;;;;;;;;;;;7.42;94.67;99466.44;4180678;28;20025;-64
2023/03/13 09:02:18;;;;;;;;;;;;;;;7.48;95.34;99481.81;4179707;28;20991;-64
2023/03/13 09:04:20;;;;;;;;;;;;;;;7.52;96.28;99466.97;4180777;28;20406;-64
2023/03/13 09:06:22;;;;;;;;;;;;;;;7.53;95.63;99474.03;4180256;28;20423;-64
2023/03/13 09:08:24;;;;;;;;;;;;;;;7.51;95.17;99459.94;4180797;28;20020;-64
2023/03/13 09:10:26;;;;;;;;;;;;;;;7.52;95.65;99453.53;4180362;28;20028;-64
2023/03/13 09:12:29;;;;;;;;;;;;;;;7.51;94.57;99450.03;4179687;28;20029;-63
2023/03/13 09:14:33;;;;;;;;;;;;;;;7.54;94.32;99471.16;4180389;28;20040;-64
2023/03/13 09:16:35;;;;;;;;;;;;;;;7.61;94.97;99441.66;4177563;28;20019;-64
2023/03/13 09:18:37;;;;;;;;;;;;;;;7.65;94.85;99442.94;4180147;28;20016;-64
2023/03/13 09:20:39;;;;;;;;;;;;;;;7.62;94.27;99451.41;4180311;28;20450;-64
2023/03/13 09:22:41;;;;;;;;;;;;;;;7.62;93.36;99446.03;4179878;28;20804;-61
2023/03/13 09:24:43;;;;;;;;;;;;;;;7.63;93.46;99458.41;4178802;28;20407;-64
2023/03/13 09:26:45;;;;;;;;;;;;;;;7.61;92.75;99452.41;4176472;28;20020;-63
2023/03/13 09:28:47;;;;;;;;;;;;;;;7.64;93.09;99457.41;4163738;28;20032;-64
2023/03/13 09:30:51;;;;;;;;;;;;;;;7.69;93.95;99468.41;4162970;28;20008;-63
2023/03/13 09:32:53;;;;;;;;;;;;;;;7.73;93.97;99442.00;4162462;28;20004;-62
2023/03/13 09:34:55;;;;;;;;;;;;;;;7.74;93.96;99481.28;4163451;28;20019;-63
2023/03/13 09:36:57;;;;;;;;;;;;;;;7.76;93.96;99455.88;4162699;28;20037;-61
2023/03/13 09:39:00;;;;;;;;;;;;;;;7.75;93.04;99450.69;4162996;28;20019;-61
2023/03/13 09:41:02;;;;;;;;;;;;;;;7.76;93.30;99466.63;4163193;28;20008;-62
2023/03/13 09:43:04;;;;;;;;;;;;;;;7.79;93.59;99472.66;4162635;28;20008;-61
2023/03/13 09:45:07;;;;;;;;;;;;;;;7.79;93.72;99446.63;4162941;28;19929;-61
2023/03/13 09:47:12;;;;;;;;;;;;;;;7.83;94.40;99455.94;4162619;28;20008;-63
2023/03/13 09:49:23;;;;;;;;;;;;;;;7.85;94.55;99440.47;4163002;28;20024;-62
2023/03/13 09:51:26;;;;;;;;;;;;;;;7.80;93.44;99450.94;4153405;28;20012;-63
2023/03/13 09:53:31;;;;;;;;;;;;;;;7.82;93.64;99450.75;4162844;28;20363;-63
2023/03/13 09:55:33;;;;;;;;;;;;;;;7.84;93.26;99444.19;4163158;28;20023;-62
2023/03/13 09:57:36;;;;;;;;;;;;;;;7.88;92.94;99421.28;4162080;28;20024;-60
2023/03/13 09:59:42;;;;;;;;;;;;;;;7.91;93.52;99437.00;4163460;28;20025;-64
2023/03/13 10:01:44;;;;;;;;;;;;;;;7.96;94.24;99440.97;4162526;28;20020;-63
2023/03/13 10:03:48;;;;;;;;;;;;;;;7.97;93.62;99419.28;4163003;28;20020;-64
2023/03/13 10:05:51;;;;;;;;;;;;;;;8.00;94.28;99442.28;4163107;28;20363;-64
2023/03/13 10:07:56;;;;;;;;;;;;;;;8.02;94.47;99429.47;4162371;28;20019;-62
2023/03/13 10:09:58;;;;;;;;;;;;;;;8.02;93.82;99434.84;4163232;28;20036;-61
2023/03/13 10:12:05;;;;;;;;;;;;;;;8.05;93.75;99431.75;4161975;28;20823;-63
2023/03/13 10:14:10;;;;;;;;;;;;;;;8.09;93.50;99430.38;4177228;28;20011;-63
2023/03/13 10:16:14;;;;;;;;;;;;;;;8.05;92.84;99426.38;4163302;28;20558;-62
2023/03/13 10:18:18;;;;;;;;;;;;;;;8.03;92.37;99423.88;4161989;28;20016;-63
2023/03/13 10:20:23;;;;;;;;;;;;;;;8.05;92.88;99427.22;4163057;28;20024;-63
2023/03/13 10:22:28;;;;;;;;;;;;;;;8.05;92.91;99423.69;4161984;28;20016;-64
2023/03/13 10:24:32;;;;;;;;;;;;;;;8.08;93.47;99420.63;4162626;28;20490;-63
2023/03/13 10:26:34;;;;;;;;;;;;;;;8.11;93.72;99420.25;4162107;28;20016;-62
2023/03/13 10:28:36;;;;;;;;;;;;;;;8.18;94.60;99449.88;4162768;28;20048;-64
2023/03/13 10:30:38;;;;;;;;;;;;;;;8.23;95.21;99416.00;4162407;28;20036;-63
2023/03/13 10:32:40;;;;;;;;;;;;;;;8.24;95.11;99423.03;4161168;28;20343;-63
2023/03/13 10:34:46;;;;;;;;;;;;;;;8.29;95.46;99417.06;4161920;28;20008;-64
2023/03/13 10:36:50;;;;;;;;;;;;;;;8.26;94.26;99410.25;4161098;28;19971;-63
2023/03/13 10:38:53;;;;;;;;;;;;;;;8.25;93.80;99416.63;4162294;28;20446;-62
2023/03/13 10:40:59;;;;;;;;;;;;;;;8.29;94.48;99415.22;4162539;28;20451;-64
2023/03/13 10:43:02;;;;;;;;;;;;;;;8.34;94.20;99440.69;4161975;28;20011;-63
2023/03/13 10:45:05;;;;;;;;;;;;;;;8.38;95.00;99431.22;4162566;28;20037;-63
2023/03/13 10:47:09;;;;;;;;;;;;;;;8.40;94.36;99413.00;4162176;28;20434;-60
2023/03/13 10:49:13;;;;;;;;;;;;;;;8.45;95.02;99391.78;4161358;28;20008;-64
2023/03/13 10:51:20;;;;;;;;;;;;;;;8.46;93.94;99382.66;4162660;28;20008;-63
2023/03/13 10:53:25;;;;;;;;;;;;;;;8.46;93.21;99390.75;4161192;28;20152;-63
2023/03/13 10:55:27;;;;;;;;;;;;;;;8.52;93.31;99394.50;4162574;28;20470;-63
2023/03/13 10:57:29;;;;;;;;;;;;;;;8.57;93.57;99384.81;4161884;28;20033;-64